Latest Weather Observations for Yarrawonga

IDV60801

Issued at 10:05 am EST Wednesday 24 September 2014 (issued every 30 minutes, with the page automatically refreshed every 10 minutes)

About weather observations | Map of weather stations | Latest weather observations for VIC | Other Formats
Station Details ID: 081124 Name: YARRAWONGA Lat: -36.03 Lon: 146.03 Height: 128.9 m
Data from the previous 72 hours. | See also: Recent months at Yarrawonga
Date/Time
EST
Temp
°C
App
Temp
°C
Dew
Point
Rel
Hum
%
Delta-T
°C
Wind Press
QNH
hPa
Press
MSL
hPa
Rain
since 9 am
mm
Dir
 
Spd
km/h
Gust
km/h
Spd
kts
Gust
kts
24/10:00am 18.0 14.8 11.1 64 3.8 NE 19 30 10 16 1019.0 1019.1 0.0
24/09:30am 16.8 13.4 10.4 66 3.4 ENE 19 24 10 13 1019.0 1019.1 0.0
24/09:00am 16.1 13.5 10.6 70 2.9 ENE 15 20 8 11 1019.4 1019.5 0.8
24/08:30am 15.3 12.6 10.5 73 2.5 ENE 15 19 8 10 1019.4 1019.5 0.8
24/08:00am 14.3 11.6 10.5 78 2.0 ENE 15 19 8 10 1019.6 1019.7 0.8
24/07:30am 13.9 11.2 10.3 79 1.9 ENE 15 20 8 11 1019.7 1019.8 0.8
24/07:00am 12.8 10.1 10.3 85 1.3 ENE 15 19 8 10 1019.6 1019.7 0.8
24/06:30am 12.6 10.6 10.1 85 1.3 ENE 11 19 6 10 1019.8 1019.9 0.8
24/06:00am 13.0 10.6 10.0 82 1.5 NE 13 17 7 9 1020.0 1020.1 0.8
24/05:30am 12.1 9.4 10.3 89 0.9 ENE 15 19 8 10 1019.6 1019.7 0.8
24/05:00am 12.5 10.4 9.9 84 1.3 NE 11 17 6 9 1019.7 1019.8 0.4
24/04:30am 12.5 10.9 8.2 75 2.1 ENE 6 7 3 4 1019.3 1019.4 0.0
24/04:00am 12.4 10.8 8.1 75 2.1 E 6 9 3 5 1019.2 1019.3 0.0
24/03:30am 12.5 10.7 8.0 74 2.2 E 7 13 4 7 1019.3 1019.4 0.0
24/03:00am 12.4 10.2 7.9 74 2.2 E 9 11 5 6 1019.6 1019.7 0.0
24/02:30am 12.5 10.3 8.0 74 2.2 E 9 11 5 6 1019.9 1020.0 0.0
24/02:00am 12.1 10.5 7.8 75 2.1 E 6 7 3 4 1020.4 1020.5 0.0
24/01:30am 12.1 10.5 7.8 75 2.1 E 6 7 3 4 1020.7 1020.8 0.0
24/01:00am 12.1 10.3 7.8 75 2.1 E 7 9 4 5 1021.1 1021.2 0.0
24/12:30am 11.5 9.3 7.8 78 1.8 E 9 11 5 6 1021.1 1021.2 0.0
24/12:00am 11.0 8.4 7.7 80 1.6 ESE 11 11 6 6 1021.3 1021.4 0.0
 
Date/Time
EST
Temp
°C
App
Temp
°C
Dew
Point
Rel
Hum
%
Delta-T
°C
Wind Press
QNH
hPa
Press
MSL
hPa
Rain
since 9 am
mm
Dir
 
Spd
km/h
Gust
km/h
Spd
kts
Gust
kts
23/11:30pm 11.1 8.4 7.2 77 1.9 ESE 11 11 6 6 1021.5 1021.6 0.0
23/11:00pm 11.5 9.6 7.4 76 2.0 E 7 9 4 5 1021.5 1021.6 0.0
23/10:30pm 12.9 9.9 7.6 70 2.6 E 13 15 7 8 1021.5 1021.6 0.0
23/10:00pm 12.9 11.1 8.0 72 2.4 E 7 9 4 5 1021.9 1022.0 0.0
23/09:30pm 12.7 10.9 7.8 72 2.4 E 7 9 4 5 1022.1 1022.2 0.0
23/09:00pm 12.2 9.6 7.7 74 2.2 E 11 13 6 7 1022.1 1022.2 0.0
23/08:30pm 11.6 8.8 7.1 74 2.2 ESE 11 13 6 7 1022.3 1022.4 0.0
23/08:00pm 12.1 9.4 7.4 73 2.3 ESE 11 13 6 7 1022.3 1022.4 0.0
23/07:30pm 12.4 10.6 7.9 74 2.2 ESE 7 9 4 5 1022.6 1022.7 0.0
23/07:00pm 13.9 12.1 8.1 68 2.9 ESE 7 9 4 5 1022.7 1022.8 0.0
23/06:30pm 15.6 14.1 8.6 63 3.6 ESE 6 9 3 5 1022.6 1022.7 0.0
23/06:00pm 18.0 16.9 9.9 59 4.3 ESE 6 9 3 5 1022.6 1022.7 0.0
23/05:30pm 20.4 18.8 8.7 47 6.2 SE 7 9 4 5 1022.6 1022.7 0.0
23/05:00pm 22.0 20.1 7.4 39 7.6 ESE 7 11 4 6 1022.6 1022.7 0.0
23/04:30pm 23.0 20.8 5.4 32 8.9 E 6 11 3 6 1022.7 1022.8 0.0
23/04:00pm 23.4 21.7 5.8 32 8.9 SE 4 7 2 4 1022.9 1023.0 0.0
23/03:30pm 23.2 20.9 4.7 30 9.2 ENE 6 9 3 5 1023.4 1023.4 0.0
23/03:00pm 23.4 21.0 5.3 31 9.1 ENE 7 13 4 7 1023.4 1023.4 0.0
23/02:30pm 23.8 21.6 6.1 32 9.1 NE 7 13 4 7 1023.8 1023.8 0.0
23/02:00pm 23.3 21.3 6.1 33 8.8 S 6 11 3 6 1024.4 1024.4 0.0
23/01:30pm 23.7 21.5 6.0 32 9.1 E 7 13 4 7 1024.9 1025.0 0.0
23/01:00pm 23.3 20.9 5.2 31 9.1 NNW 7 13 4 7 1025.3 1025.4 0.0
23/12:30pm 22.9 20.9 7.1 36 8.2 ENE 7 13 4 7 1025.7 1025.8 0.0
23/12:00pm 22.4 20.5 8.9 42 7.2 E 9 17 5 9 1026.0 1026.1 0.0
23/11:30am 21.5 19.0 8.4 43 6.9 ENE 11 17 6 9 1026.5 1026.6 0.0
23/11:00am 20.7 18.0 9.0 47 6.2 ENE 13 19 7 10 1027.0 1027.1 0.0
23/10:30am 19.2 16.5 9.1 52 5.3 E 13 19 7 10 1027.4 1027.5 0.0
23/10:00am 18.4 16.2 9.5 56 4.7 ENE 11 17 6 9 1027.9 1028.0 0.0
23/09:30am 16.7 13.9 8.4 58 4.3 ENE 13 19 7 10 1028.3 1028.4 0.0
23/09:00am 15.7 13.4 8.9 64 3.5 ENE 11 13 6 7 1028.4 1028.5 0.0
23/08:30am 14.3 11.6 8.9 70 2.8 E 13 15 7 8 1028.4 1028.5 0.0
23/08:00am 12.2 9.2 7.7 74 2.2 E 13 17 7 9 1028.4 1028.5 0.0
23/07:30am 10.4 7.4 7.6 83 1.4 E 13 19 7 10 1028.2 1028.3 0.0
23/07:00am 8.7 6.0 7.2 90 0.7 E 11 15 6 8 1028.2 1028.3 0.0
23/06:30am 6.2 3.9 5.9 98 0.1 ENE 7 11 4 6 1028.1 1028.2 0.0
23/06:00am 5.0 2.5 4.7 98 0.1 E 7 9 4 5 1028.1 1028.2 0.0
23/05:30am 5.5 3.1 5.2 98 0.1 E 7 11 4 6 1028.0 1028.1 0.0
23/05:00am 6.2 3.6 5.9 98 0.1 E 9 11 5 6 1027.7 1027.8 0.0
23/04:30am 6.0 3.3 5.7 98 0.1 E 9 11 5 6 1027.6 1027.7 0.0
23/04:00am 6.5 4.3 6.2 98 0.1 ENE 7 9 4 5 1027.5 1027.6 0.0
23/03:30am 6.1 4.0 5.8 98 0.1 E 6 7 3 4 1027.3 1027.4 0.0
23/03:00am 6.3 4.2 5.9 97 0.2 E 6 7 3 4 1027.2 1027.3 0.0
23/02:30am 5.9 3.1 5.2 95 0.3 E 9 9 5 5 1027.4 1027.5 0.0
23/02:00am 5.9 2.7 4.9 93 0.4 ESE 11 13 6 7 1027.6 1027.7 0.0
23/01:30am 6.0 3.1 4.8 92 0.5 ESE 9 11 5 6 1027.9 1028.0 0.0
23/01:00am 6.5 4.0 4.8 89 0.7 E 7 9 4 5 1028.1 1028.2 0.0
23/12:30am 7.5 5.1 5.1 85 1.1 E 7 9 4 5 1028.2 1028.3 0.0
23/12:00am 7.2 4.9 4.9 85 1.0 E 6 7 3 4 1028.1 1028.2 0.0
 
Date/Time
EST
Temp
°C
App
Temp
°C
Dew
Point
Rel
Hum
%
Delta-T
°C
Wind Press
QNH
hPa
Press
MSL
hPa
Rain
since 9 am
mm
Dir
 
Spd
km/h
Gust
km/h
Spd
kts
Gust
kts
22/11:30pm 7.3 5.1 5.1 86 1.0 E 6 6 3 3 1028.0 1028.1 0.0
22/11:00pm 7.8 5.4 5.3 84 1.1 E 7 9 4 5 1028.0 1028.1 0.0
22/10:30pm 7.4 5.6 5.5 88 0.9 ESE 4 6 2 3 1028.0 1028.1 0.0
22/10:00pm 7.3 5.4 5.1 86 1.0 SE 4 7 2 4 1028.0 1028.1 0.0
22/09:30pm 8.8 6.5 5.9 82 1.3 SE 7 9 4 5 1027.8 1027.9 0.0
22/09:00pm 8.7 6.4 5.8 82 1.3 ESE 7 11 4 6 1027.7 1027.8 0.0
22/08:30pm 8.8 6.7 5.7 81 1.4 SSE 6 7 3 4 1027.7 1027.8 0.0
22/08:00pm 11.2 9.2 6.1 71 2.4 SE 6 6 3 3 1027.7 1027.8 0.0
22/07:30pm 12.1 10.2 6.6 69 2.6 ESE 6 6 3 3 1027.5 1027.6 0.0
22/07:00pm 12.8 11.0 7.3 69 2.7 SE 6 7 3 4 1027.3 1027.4 0.0
22/06:30pm 14.3 12.5 8.0 66 3.2 SE 7 9 4 5 1027.1 1027.2 0.0
22/06:00pm 16.7 14.9 8.1 57 4.4 SE 7 9 4 5 1026.8 1026.9 0.0
22/05:30pm 19.4 17.6 7.2 45 6.2 SE 6 7 3 4 1026.7 1026.8 0.0
22/05:00pm 21.0 18.8 5.4 36 7.7 SE 6 7 3 4 1026.6 1026.7 0.0
22/04:30pm 21.4 19.4 4.5 33 8.3 SSE 4 7 2 4 1026.5 1026.6 0.0
22/04:00pm 21.6 19.3 4.7 33 8.3 S 6 11 3 6 1026.6 1026.7 0.0
22/03:30pm 21.7 19.3 4.3 32 8.5 ESE 6 11 3 6 1026.7 1026.8 0.0
22/03:00pm 21.9 19.8 5.8 35 8.1 SE 6 9 3 5 1026.9 1027.0 0.0
22/02:30pm 21.7 19.3 4.3 32 8.5 E 6 11 3 6 1027.2 1027.3 0.0
22/02:00pm 21.8 19.4 4.4 32 8.5 E 6 11 3 6 1027.5 1027.6 0.0
22/01:30pm 21.6 19.7 5.1 34 8.2 NNE 4 11 2 6 1027.8 1027.9 0.0
22/01:00pm 21.2 18.8 4.3 33 8.2 E 6 15 3 8 1028.2 1028.3 0.0
22/12:30pm 20.8 18.5 5.6 37 7.6 E 7 13 4 7 1028.7 1028.8 0.0
22/12:00pm 20.8 18.5 5.6 37 7.5 NNE 7 15 4 8 1029.1 1029.2 0.0
22/11:30am 19.9 17.1 7.0 43 6.6 NNE 11 19 6 10 1029.5 1029.6 0.0
22/11:00am 19.1 16.3 8.7 51 5.4 NNE 13 17 7 9 1029.9 1030.0 0.0
22/10:30am 17.4 15.1 9.1 58 4.3 NNE 11 17 6 9 1030.3 1030.4 0.0
22/10:00am 16.6 14.3 9.1 61 3.9 NNE 11 19 6 10 1030.5 1030.6 0.0
22/09:30am 15.7 13.5 9.4 66 3.3 NNE 11 17 6 9 1030.5 1030.6 0.0
22/09:00am 13.9 12.0 8.9 72 2.5 NE 9 15 5 8 1030.7 1030.8 0.0
22/08:30am 12.9 10.5 8.6 75 2.2 ENE 11 17 6 9 1030.6 1030.7 0.0
22/08:00am 11.6 10.3 9.9 89 0.9 E 7 9 4 5 1030.5 1030.6 0.0
22/07:30am 9.3 7.8 9.0 98 0.1 E 7 9 4 5 1030.4 1030.5 0.0
22/07:00am 6.4 4.8 6.3 99 0.0 E 4 6 2 3 1030.0 1030.1 0.0
22/06:30am 4.2 1.7 3.9 98 0.1 ESE 6 7 3 4 1029.6 1029.7 0.0
22/06:00am 3.5 0.9 3.2 98 0.1 E 6 9 3 5 1029.3 1029.4 0.0
22/05:30am 3.6 1.0 3.3 98 0.1 E 6 6 3 3 1029.0 1029.1 0.0
22/05:00am 4.3 1.8 4.0 98 0.1 ESE 6 7 3 4 1028.7 1028.8 0.0
22/04:30am 4.4 2.0 4.1 98 0.1 ESE 6 7 3 4 1028.3 1028.4 0.0
22/04:00am 4.5 1.9 4.2 98 0.1 ESE 7 9 4 5 1028.1 1028.2 0.0
22/03:30am 3.6 0.8 3.3 98 0.1 ESE 7 11 4 6 1027.8 1027.9 0.0
22/03:00am 4.9 2.4 4.6 98 0.1 E 7 7 4 4 1028.0 1028.1 0.0
22/02:30am 4.2 1.7 3.9 98 0.1 E 6 7 3 4 1028.2 1028.3 0.0
22/02:00am 3.2 0.9 2.9 98 0.1 ESE 4 6 2 3 1028.2 1028.3 0.0
22/01:30am 3.6 1.0 3.3 98 0.1 SSE 6 7 3 4 1028.3 1028.4 0.0
22/01:00am 3.7 1.9 3.4 98 0.1 S 2 4 1 2 1028.5 1028.6 0.0
22/12:30am 4.2 2.5 3.9 98 0.1 S 2 4 1 2 1028.8 1028.9 0.0
22/12:00am 4.6 3.3 4.3 98 0.1 CALM 0 0 0 0 1028.7 1028.8 0.0
 
Date/Time
EST
Temp
°C
App
Temp
°C
Dew
Point
Rel
Hum
%
Delta-T
°C
Wind Press
QNH
hPa
Press
MSL
hPa
Rain
since 9 am
mm
Dir
 
Spd
km/h
Gust
km/h
Spd
kts
Gust
kts
21/11:30pm 5.9 4.9 5.6 98 0.1 CALM 0 0 0 0 1028.7 1028.8 0.0
21/11:00pm 6.1 5.1 5.8 98 0.1 CALM 0 0 0 0 1028.6 1028.7 0.0
21/10:30pm 6.1 5.1 5.5 96 0.3 CALM 0 0 0 0 1028.4 1028.5 0.0
21/10:00pm 6.9 6.1 6.3 96 0.3 CALM 0 0 0 0 1028.3 1028.4 0.0
21/09:30pm 6.6 4.9 5.7 94 0.4 WSW 4 4 2 2 1028.3 1028.4 0.0
21/09:00pm 7.7 6.0 6.0 89 0.8 SW 4 6 2 3 1028.1 1028.2 0.0
21/08:30pm 8.3 6.7 6.3 87 0.9 SW 4 4 2 2 1028.1 1028.2 0.0
21/08:00pm 9.7 8.2 6.6 81 1.4 SSW 4 6 2 3 1028.0 1028.1 0.0
21/07:30pm 10.7 9.3 7.2 79 1.7 S 4 4 2 2 1027.9 1028.0 0.0
21/07:00pm 11.1 9.3 7.2 77 1.9 SSW 6 7 3 4 1027.7 1027.8 0.0
21/06:30pm 12.2 10.3 7.7 74 2.2 SSW 7 9 4 5 1027.6 1027.7 0.0
21/06:00pm 14.2 12.0 7.9 66 3.1 SSW 9 9 5 5 1027.4 1027.5 0.0
21/05:30pm 17.1 15.3 8.0 55 4.6 SSW 7 11 4 6 1027.3 1027.4 0.0
21/05:00pm 18.6 16.5 6.8 46 5.9 S 7 9 4 5 1027.2 1027.3 0.0
21/04:30pm 19.1 16.5 6.2 43 6.4 S 9 13 5 7 1027.2 1027.3 0.0
21/04:00pm 19.5 17.8 5.9 41 6.7 S 4 7 2 4 1027.3 1027.4 0.0
21/03:30pm 19.8 17.5 5.5 39 7.1 S 7 13 4 7 1027.4 1027.5 0.0
21/03:00pm 20.1 18.2 6.5 41 6.8 WSW 6 9 3 5 1027.6 1027.7 0.0
21/02:30pm 19.8 17.9 5.1 38 7.2 N 4 7 2 4 1027.8 1027.9 0.0
21/02:00pm 19.0 16.8 5.1 40 6.7 ESE 6 11 3 6 1028.2 1028.3 0.0
21/01:30pm 19.1 16.5 5.9 42 6.6 ENE 9 13 5 7 1028.5 1028.6 0.0
21/01:00pm 18.8 17.0 7.3 47 5.8 ESE 6 15 3 8 1028.9 1029.0 0.0
21/12:30pm 18.6 16.8 7.1 47 5.8 E 6 9 3 5 1029.3 1029.4 0.0
21/12:00pm 17.9 15.8 6.7 48 5.6 NE 7 11 4 6 1029.6 1029.7 0.0
21/11:30am 17.7 15.7 6.9 49 5.4 NE 7 13 4 7 1029.9 1030.0 0.0
21/11:00am 16.5 14.4 6.6 52 4.9 NE 7 13 4 7 1030.2 1030.3 0.0
21/10:30am 15.9 13.7 6.3 53 4.7 NE 7 13 4 7 1030.3 1030.4 0.0

Other Formats:

Comma delimited format used in spreadsheet applications
http://www.bom.gov.au/fwo/IDV60801/IDV60801.94862.axf

JavaScript Object Notation format (JSON) in row-major order
http://www.bom.gov.au/fwo/IDV60801/IDV60801.94862.json